sensor_id;sensor_type;location;lat;lon;timestamp;pressure;altitude;pressure_sealevel;temperature
72054;BMP280;59918;51.280;7.950;2022-07-29T00:01:37;98027.19;;;17.51
72054;BMP280;59918;51.280;7.950;2022-07-29T00:04:02;98024.81;;;17.49
72054;BMP280;59918;51.280;7.950;2022-07-29T00:06:30;98024.03;;;17.49
72054;BMP280;59918;51.280;7.950;2022-07-29T00:08:55;98010.72;;;17.45
72054;BMP280;59918;51.280;7.950;2022-07-29T00:11:20;98015.94;;;17.45
72054;BMP280;59918;51.280;7.950;2022-07-29T00:13:48;98013.34;;;17.45
72054;BMP280;59918;51.280;7.950;2022-07-29T00:16:13;98018.22;;;17.42
72054;BMP280;59918;51.280;7.950;2022-07-29T00:18:38;98011.69;;;17.39
72054;BMP280;59918;51.280;7.950;2022-07-29T00:21:04;98010.84;;;17.34
72054;BMP280;59918;51.280;7.950;2022-07-29T00:23:29;98011.63;;;17.34
72054;BMP280;59918;51.280;7.950;2022-07-29T00:25:56;98006.41;;;17.34
72054;BMP280;59918;51.280;7.950;2022-07-29T00:28:22;97996.28;;;17.33
72054;BMP280;59918;51.280;7.950;2022-07-29T00:30:47;97995.47;;;17.32
72054;BMP280;59918;51.280;7.950;2022-07-29T00:33:14;98000.94;;;17.31
72054;BMP280;59918;51.280;7.950;2022-07-29T00:35:42;97989.72;;;17.30
72054;BMP280;59918;51.280;7.950;2022-07-29T00:38:07;97992.34;;;17.30
72054;BMP280;59918;51.280;7.950;2022-07-29T00:40:32;97990.53;;;17.31
72054;BMP280;59918;51.280;7.950;2022-07-29T00:42:58;97991.78;;;17.28
72054;BMP280;59918;51.280;7.950;2022-07-29T00:45:23;97991.50;;;17.25
72054;BMP280;59918;51.280;7.950;2022-07-29T00:47:49;97992.75;;;17.22
72054;BMP280;59918;51.280;7.950;2022-07-29T00:50:17;97987.50;;;17.17
72054;BMP280;59918;51.280;7.950;2022-07-29T00:52:42;97991.28;;;17.10
72054;BMP280;59918;51.280;7.950;2022-07-29T00:55:10;97986.47;;;17.02
72054;BMP280;59918;51.280;7.950;2022-07-29T00:57:42;97994.69;;;16.94
72054;BMP280;59918;51.280;7.950;2022-07-29T01:00:10;97988.41;;;16.90
72054;BMP280;59918;51.280;7.950;2022-07-29T01:02:38;97994.38;;;16.91
72054;BMP280;59918;51.280;7.950;2022-07-29T01:05:05;97990.44;;;16.88
72054;BMP280;59918;51.280;7.950;2022-07-29T01:07:32;97986.75;;;16.84
72054;BMP280;59918;51.280;7.950;2022-07-29T01:09:59;97979.41;;;16.81
72054;BMP280;59918;51.280;7.950;2022-07-29T01:12:30;97982.56;;;16.83
72054;BMP280;59918;51.280;7.950;2022-07-29T01:14:56;97975.50;;;16.79
72054;BMP280;59918;51.280;7.950;2022-07-29T01:17:38;97976.28;;;16.79
72054;BMP280;59918;51.280;7.950;2022-07-29T01:20:20;97969.97;;;16.76
72054;BMP280;59918;51.280;7.950;2022-07-29T01:31:06;97960.00;;;16.68
72054;BMP280;59918;51.280;7.950;2022-07-29T01:33:34;97957.41;;;16.68
72054;BMP280;59918;51.280;7.950;2022-07-29T01:36:07;97956.31;;;16.64
72054;BMP280;59918;51.280;7.950;2022-07-29T01:38:39;97948.78;;;16.62
72054;BMP280;59918;51.280;7.950;2022-07-29T01:41:09;97953.72;;;16.64
72054;BMP280;59918;51.280;7.950;2022-07-29T01:43:51;97953.16;;;16.62
72054;BMP280;59918;51.280;7.950;2022-07-29T01:49:15;97949.97;;;16.55
72054;BMP280;59918;51.280;7.950;2022-07-29T01:51:49;97948.91;;;16.56
72054;BMP280;59918;51.280;7.950;2022-07-29T01:57:03;97941.41;;;16.54
72054;BMP280;59918;51.280;7.950;2022-07-29T01:59:30;97940.03;;;16.52
72054;BMP280;59918;51.280;7.950;2022-07-29T02:01:58;97945.78;;;16.54
72054;BMP280;59918;51.280;7.950;2022-07-29T02:04:25;97941.63;;;16.53
72054;BMP280;59918;51.280;7.950;2022-07-29T02:06:53;97941.13;;;16.56
72054;BMP280;59918;51.280;7.950;2022-07-29T02:09:23;97935.25;;;16.60
72054;BMP280;59918;51.280;7.950;2022-07-29T02:11:53;97937.91;;;16.65
72054;BMP280;59918;51.280;7.950;2022-07-29T02:14:21;97935.06;;;16.67
72054;BMP280;59918;51.280;7.950;2022-07-29T02:16:48;97942.91;;;16.72
72054;BMP280;59918;51.280;7.950;2022-07-29T02:19:17;97939.00;;;16.69
72054;BMP280;59918;51.280;7.950;2022-07-29T02:21:44;97950.34;;;16.63
72054;BMP280;59918;51.280;7.950;2022-07-29T02:24:11;97946.03;;;16.52
72054;BMP280;59918;51.280;7.950;2022-07-29T02:26:38;97947.53;;;16.48
72054;BMP280;59918;51.280;7.950;2022-07-29T02:29:05;97945.41;;;16.45
72054;BMP280;59918;51.280;7.950;2022-07-29T02:31:33;97948.72;;;16.41
72054;BMP280;59918;51.280;7.950;2022-07-29T02:34:05;97942.41;;;16.37
72054;BMP280;59918;51.280;7.950;2022-07-29T02:36:31;97946.50;;;16.33
72054;BMP280;59918;51.280;7.950;2022-07-29T02:39:01;97942.31;;;16.32
72054;BMP280;59918;51.280;7.950;2022-07-29T02:41:40;97941.78;;;16.30
72054;BMP280;59918;51.280;7.950;2022-07-29T02:44:18;97945.88;;;16.26
72054;BMP280;59918;51.280;7.950;2022-07-29T02:46:53;97951.06;;;16.26
72054;BMP280;59918;51.280;7.950;2022-07-29T02:49:35;97960.88;;;16.24
72054;BMP280;59918;51.280;7.950;2022-07-29T02:52:04;97956.25;;;16.26
72054;BMP280;59918;51.280;7.950;2022-07-29T02:57:03;97962.31;;;16.32
72054;BMP280;59918;51.280;7.950;2022-07-29T02:59:33;97960.25;;;16.34
72054;BMP280;59918;51.280;7.950;2022-07-29T03:01:59;97961.53;;;16.31
72054;BMP280;59918;51.280;7.950;2022-07-29T03:04:27;97955.06;;;16.34
72054;BMP280;59918;51.280;7.950;2022-07-29T03:06:53;97952.72;;;16.32
72054;BMP280;59918;51.280;7.950;2022-07-29T03:09:20;97955.84;;;16.34
72054;BMP280;59918;51.280;7.950;2022-07-29T03:11:46;97955.31;;;16.32
72054;BMP280;59918;51.280;7.950;2022-07-29T03:14:12;97949.78;;;16.29
72054;BMP280;59918;51.280;7.950;2022-07-29T03:16:38;97945.00;;;16.21
72054;BMP280;59918;51.280;7.950;2022-07-29T03:19:04;97939.94;;;16.14
72054;BMP280;59918;51.280;7.950;2022-07-29T03:21:30;97936.00;;;16.12
72054;BMP280;59918;51.280;7.950;2022-07-29T03:23:56;97936.22;;;16.10
72054;BMP280;59918;51.280;7.950;2022-07-29T03:26:21;97932.53;;;16.06
72054;BMP280;59918;51.280;7.950;2022-07-29T03:28:46;97925.53;;;16.07
72054;BMP280;59918;51.280;7.950;2022-07-29T03:31:11;97921.72;;;16.09
72054;BMP280;59918;51.280;7.950;2022-07-29T03:33:37;97921.72;;;16.09
72054;BMP280;59918;51.280;7.950;2022-07-29T03:36:02;97927.91;;;16.08
72054;BMP280;59918;51.280;7.950;2022-07-29T03:38:29;97924.22;;;16.05
72054;BMP280;59918;51.280;7.950;2022-07-29T03:41:03;97920.72;;;15.99
72054;BMP280;59918;51.280;7.950;2022-07-29T03:43:32;97920.56;;;15.89
72054;BMP280;59918;51.280;7.950;2022-07-29T03:45:59;97917.13;;;15.84
72054;BMP280;59918;51.280;7.950;2022-07-29T03:48:26;97914.09;;;15.75
72054;BMP280;59918;51.280;7.950;2022-07-29T03:50:55;97919.84;;;15.77
72054;BMP280;59918;51.280;7.950;2022-07-29T03:53:20;97921.66;;;15.77
72054;BMP280;59918;51.280;7.950;2022-07-29T03:55:49;97905.06;;;15.78
72054;BMP280;59918;51.280;7.950;2022-07-29T03:58:16;97902.47;;;15.78
72054;BMP280;59918;51.280;7.950;2022-07-29T04:00:44;97903.28;;;15.78
72054;BMP280;59918;51.280;7.950;2022-07-29T04:03:09;97893.13;;;15.77
72054;BMP280;59918;51.280;7.950;2022-07-29T04:05:35;97906.09;;;15.77
72054;BMP280;59918;51.280;7.950;2022-07-29T04:08:00;97906.81;;;15.72
72054;BMP280;59918;51.280;7.950;2022-07-29T04:10:28;97900.25;;;15.70
72054;BMP280;59918;51.280;7.950;2022-07-29T04:12:53;97905.44;;;15.70
72054;BMP280;59918;51.280;7.950;2022-07-29T04:15:19;97912.91;;;15.67
72054;BMP280;59918;51.280;7.950;2022-07-29T04:17:44;97915.19;;;15.63
72054;BMP280;59918;51.280;7.950;2022-07-29T04:20:10;97916.44;;;15.61
72054;BMP280;59918;51.280;7.950;2022-07-29T04:22:35;97910.22;;;15.62
72054;BMP280;59918;51.280;7.950;2022-07-29T04:25:03;97915.63;;;15.60
72054;BMP280;59918;51.280;7.950;2022-07-29T04:27:28;97921.28;;;15.57
72054;BMP280;59918;51.280;7.950;2022-07-29T04:29:56;97910.25;;;15.50
72054;BMP280;59918;51.280;7.950;2022-07-29T04:32:21;97903.91;;;15.41
72054;BMP280;59918;51.280;7.950;2022-07-29T04:34:47;97910.56;;;15.37
72054;BMP280;59918;51.280;7.950;2022-07-29T04:37:15;97906.84;;;15.33
72054;BMP280;59918;51.280;7.950;2022-07-29T04:39:40;97902.13;;;15.31
72054;BMP280;59918;51.280;7.950;2022-07-29T04:42:05;97909.88;;;15.31
72054;BMP280;59918;51.280;7.950;2022-07-29T04:44:30;97904.72;;;15.31
72054;BMP280;59918;51.280;7.950;2022-07-29T04:46:59;97907.78;;;15.28
72054;BMP280;59918;51.280;7.950;2022-07-29T04:49:24;97902.47;;;15.23
72054;BMP280;59918;51.280;7.950;2022-07-29T04:51:52;97906.66;;;15.24
72054;BMP280;59918;51.280;7.950;2022-07-29T04:54:19;97908.56;;;15.28
72054;BMP280;59918;51.280;7.950;2022-07-29T04:56:44;97907.31;;;15.31
72054;BMP280;59918;51.280;7.950;2022-07-29T04:59:12;97907.06;;;15.32
72054;BMP280;59918;51.280;7.950;2022-07-29T05:01:37;97913.59;;;15.34
72054;BMP280;59918;51.280;7.950;2022-07-29T05:04:03;97918.56;;;15.36
72054;BMP280;59918;51.280;7.950;2022-07-29T05:06:28;97919.44;;;15.41
72054;BMP280;59918;51.280;7.950;2022-07-29T05:08:53;97918.28;;;15.49
72054;BMP280;59918;51.280;7.950;2022-07-29T05:11:19;97911.72;;;15.58
72054;BMP280;59918;51.280;7.950;2022-07-29T05:13:44;97909.53;;;15.66
72054;BMP280;59918;51.280;7.950;2022-07-29T05:16:09;97913.78;;;15.72
72054;BMP280;59918;51.280;7.950;2022-07-29T05:18:34;97914.88;;;15.76
72054;BMP280;59918;51.280;7.950;2022-07-29T05:21:02;97913.44;;;15.80
72054;BMP280;59918;51.280;7.950;2022-07-29T05:23:27;97912.94;;;15.83
72054;BMP280;59918;51.280;7.950;2022-07-29T05:25:52;97906.03;;;15.88
72054;BMP280;59918;51.280;7.950;2022-07-29T05:28:18;97915.09;;;16.02
72054;BMP280;59918;51.280;7.950;2022-07-29T05:30:45;97908.66;;;16.21
72054;BMP280;59918;51.280;7.950;2022-07-29T05:33:10;97910.72;;;16.35
72054;BMP280;59918;51.280;7.950;2022-07-29T05:35:36;97910.66;;;16.46
72054;BMP280;59918;51.280;7.950;2022-07-29T05:38:01;97904.00;;;16.55
72054;BMP280;59918;51.280;7.950;2022-07-29T05:42:59;97912.25;;;16.69
72054;BMP280;59918;51.280;7.950;2022-07-29T05:45:25;97922.53;;;16.80
72054;BMP280;59918;51.280;7.950;2022-07-29T05:47:50;97922.91;;;16.88
72054;BMP280;59918;51.280;7.950;2022-07-29T05:50:15;97936.81;;;16.99
72054;BMP280;59918;51.280;7.950;2022-07-29T05:52:41;97955.13;;;17.09
72054;BMP280;59918;51.280;7.950;2022-07-29T05:55:06;97968.53;;;17.17
72054;BMP280;59918;51.280;7.950;2022-07-29T05:57:32;97977.66;;;17.19
72054;BMP280;59918;51.280;7.950;2022-07-29T05:59:57;97972.47;;;17.19
72054;BMP280;59918;51.280;7.950;2022-07-29T06:02:23;97980.31;;;17.24
72054;BMP280;59918;51.280;7.950;2022-07-29T06:07:18;97996.00;;;17.51
72054;BMP280;59918;51.280;7.950;2022-07-29T06:09:43;98001.59;;;17.64
72054;BMP280;59918;51.280;7.950;2022-07-29T06:12:09;97992.09;;;17.74
72054;BMP280;59918;51.280;7.950;2022-07-29T06:14:35;97999.78;;;17.86
72054;BMP280;59918;51.280;7.950;2022-07-29T06:17:00;98004.81;;;17.97
72054;BMP280;59918;51.280;7.950;2022-07-29T06:19:26;98008.63;;;18.11
72054;BMP280;59918;51.280;7.950;2022-07-29T06:21:51;98006.19;;;18.26
72054;BMP280;59918;51.280;7.950;2022-07-29T06:24:18;97999.28;;;18.41
72054;BMP280;59918;51.280;7.950;2022-07-29T06:26:44;97992.41;;;18.56
72054;BMP280;59918;51.280;7.950;2022-07-29T06:29:09;97997.47;;;18.72
72054;BMP280;59918;51.280;7.950;2022-07-29T06:31:35;97994.41;;;18.85
72054;BMP280;59918;51.280;7.950;2022-07-29T06:34:02;98006.25;;;18.98
72054;BMP280;59918;51.280;7.950;2022-07-29T06:36:33;98000.03;;;19.03
72054;BMP280;59918;51.280;7.950;2022-07-29T06:38:59;98000.09;;;19.13
72054;BMP280;59918;51.280;7.950;2022-07-29T06:41:26;97996.47;;;19.19
72054;BMP280;59918;51.280;7.950;2022-07-29T06:43:51;97993.63;;;19.21
72054;BMP280;59918;51.280;7.950;2022-07-29T06:46:18;98001.72;;;19.24
72054;BMP280;59918;51.280;7.950;2022-07-29T06:48:43;97999.66;;;19.31
72054;BMP280;59918;51.280;7.950;2022-07-29T06:51:09;98002.06;;;19.42
72054;BMP280;59918;51.280;7.950;2022-07-29T06:53:35;98005.81;;;19.66
72054;BMP280;59918;51.280;7.950;2022-07-29T06:56:04;97986.88;;;20.00
72054;BMP280;59918;51.280;7.950;2022-07-29T06:58:29;97994.78;;;20.45
72054;BMP280;59918;51.280;7.950;2022-07-29T07:00:56;97995.31;;;20.86
72054;BMP280;59918;51.280;7.950;2022-07-29T07:03:21;98002.06;;;21.17
72054;BMP280;59918;51.280;7.950;2022-07-29T07:05:47;97999.09;;;21.38
72054;BMP280;59918;51.280;7.950;2022-07-29T07:08:15;97998.78;;;21.59
72054;BMP280;59918;51.280;7.950;2022-07-29T07:10:40;97998.25;;;21.62
72054;BMP280;59918;51.280;7.950;2022-07-29T07:13:06;98010.84;;;21.60
72054;BMP280;59918;51.280;7.950;2022-07-29T07:15:31;98018.16;;;21.58
72054;BMP280;59918;51.280;7.950;2022-07-29T07:17:57;98014.47;;;21.59
72054;BMP280;59918;51.280;7.950;2022-07-29T07:20:22;98012.38;;;21.61
72054;BMP280;59918;51.280;7.950;2022-07-29T07:22:47;98012.28;;;21.81
72054;BMP280;59918;51.280;7.950;2022-07-29T07:25:13;98004.81;;;22.07
72054;BMP280;59918;51.280;7.950;2022-07-29T07:27:38;98003.19;;;22.21
72054;BMP280;59918;51.280;7.950;2022-07-29T07:30:05;98002.59;;;22.34
72054;BMP280;59918;51.280;7.950;2022-07-29T07:32:32;98000.84;;;22.58
72054;BMP280;59918;51.280;7.950;2022-07-29T07:34:57;97997.84;;;22.69
72054;BMP280;59918;51.280;7.950;2022-07-29T07:37:25;97985.22;;;22.76
72054;BMP280;59918;51.280;7.950;2022-07-29T07:39:51;97983.81;;;22.88
72054;BMP280;59918;51.280;7.950;2022-07-29T07:42:17;97986.72;;;23.10
72054;BMP280;59918;51.280;7.950;2022-07-29T07:44:42;97985.50;;;23.26
72054;BMP280;59918;51.280;7.950;2022-07-29T07:47:08;97983.44;;;23.46
72054;BMP280;59918;51.280;7.950;2022-07-29T07:49:35;97982.38;;;23.70
72054;BMP280;59918;51.280;7.950;2022-07-29T07:52:01;97981.47;;;23.80
72054;BMP280;59918;51.280;7.950;2022-07-29T07:54:28;97973.38;;;23.94
72054;BMP280;59918;51.280;7.950;2022-07-29T07:56:54;97968.72;;;24.28
72054;BMP280;59918;51.280;7.950;2022-07-29T07:59:19;97968.34;;;24.66
72054;BMP280;59918;51.280;7.950;2022-07-29T08:01:44;97965.16;;;25.00
72054;BMP280;59918;51.280;7.950;2022-07-29T08:04:09;97965.47;;;25.26
72054;BMP280;59918;51.280;7.950;2022-07-29T08:06:35;97963.47;;;25.18
72054;BMP280;59918;51.280;7.950;2022-07-29T08:09:00;97961.34;;;25.33
72054;BMP280;59918;51.280;7.950;2022-07-29T08:11:34;97963.16;;;25.72
72054;BMP280;59918;51.280;7.950;2022-07-29T08:13:59;97963.53;;;25.93
72054;BMP280;59918;51.280;7.950;2022-07-29T08:16:25;97960.88;;;26.06
72054;BMP280;59918;51.280;7.950;2022-07-29T08:18:50;97961.41;;;26.16
72054;BMP280;59918;51.280;7.950;2022-07-29T08:21:17;97959.34;;;26.13
72054;BMP280;59918;51.280;7.950;2022-07-29T08:23:44;97958.75;;;26.30
72054;BMP280;59918;51.280;7.950;2022-07-29T08:26:09;97956.16;;;26.60
72054;BMP280;59918;51.280;7.950;2022-07-29T08:28:35;97942.53;;;26.66
72054;BMP280;59918;51.280;7.950;2022-07-29T08:31:00;97952.78;;;26.68
72054;BMP280;59918;51.280;7.950;2022-07-29T08:33:25;97949.56;;;26.71
72054;BMP280;59918;51.280;7.950;2022-07-29T08:35:50;97953.09;;;26.66
72054;BMP280;59918;51.280;7.950;2022-07-29T08:38:16;97947.66;;;26.63
72054;BMP280;59918;51.280;7.950;2022-07-29T08:40:41;97949.66;;;26.87
72054;BMP280;59918;51.280;7.950;2022-07-29T08:43:08;97952.41;;;27.13
72054;BMP280;59918;51.280;7.950;2022-07-29T08:45:46;97961.97;;;27.30
72054;BMP280;59918;51.280;7.950;2022-07-29T08:48:13;97956.00;;;27.16
72054;BMP280;59918;51.280;7.950;2022-07-29T08:50:39;97952.88;;;27.06
72054;BMP280;59918;51.280;7.950;2022-07-29T08:53:07;97951.66;;;27.12
72054;BMP280;59918;51.280;7.950;2022-07-29T08:58:21;97945.53;;;27.33
72054;BMP280;59918;51.280;7.950;2022-07-29T09:00:52;97950.53;;;27.43
72054;BMP280;59918;51.280;7.950;2022-07-29T09:03:22;97953.84;;;27.57
72054;BMP280;59918;51.280;7.950;2022-07-29T09:05:48;97962.53;;;27.66
72054;BMP280;59918;51.280;7.950;2022-07-29T09:08:15;97960.84;;;27.70
72054;BMP280;59918;51.280;7.950;2022-07-29T09:10:40;97949.81;;;27.76
72054;BMP280;59918;51.280;7.950;2022-07-29T09:13:05;97955.13;;;27.85
72054;BMP280;59918;51.280;7.950;2022-07-29T09:15:31;97956.81;;;27.81
72054;BMP280;59918;51.280;7.950;2022-07-29T09:17:56;97941.44;;;27.91
72054;BMP280;59918;51.280;7.950;2022-07-29T09:20:22;97945.50;;;28.05
72054;BMP280;59918;51.280;7.950;2022-07-29T09:22:47;97945.97;;;28.24
72054;BMP280;59918;51.280;7.950;2022-07-29T09:25:32;97936.78;;;28.47
72054;BMP280;59918;51.280;7.950;2022-07-29T09:28:15;97930.69;;;28.63
72054;BMP280;59918;51.280;7.950;2022-07-29T09:30:54;97930.91;;;28.95
72054;BMP280;59918;51.280;7.950;2022-07-29T09:33:21;97926.75;;;29.23
72054;BMP280;59918;51.280;7.950;2022-07-29T09:35:59;97927.66;;;29.35
72054;BMP280;59918;51.280;7.950;2022-07-29T09:38:24;97929.94;;;29.65
72054;BMP280;59918;51.280;7.950;2022-07-29T09:40:57;97922.28;;;30.13
72054;BMP280;59918;51.280;7.950;2022-07-29T09:43:22;97924.69;;;30.70
72054;BMP280;59918;51.280;7.950;2022-07-29T09:45:48;97915.59;;;31.26
72054;BMP280;59918;51.280;7.950;2022-07-29T09:48:20;97915.47;;;31.70
72054;BMP280;59918;51.280;7.950;2022-07-29T09:50:46;97915.66;;;31.77
72054;BMP280;59918;51.280;7.950;2022-07-29T09:53:12;97904.53;;;31.48
72054;BMP280;59918;51.280;7.950;2022-07-29T09:55:53;97905.72;;;31.63
72054;BMP280;59918;51.280;7.950;2022-07-29T09:58:20;97912.13;;;31.73
72054;BMP280;59918;51.280;7.950;2022-07-29T10:00:47;97896.84;;;31.70
72054;BMP280;59918;51.280;7.950;2022-07-29T10:03:13;97894.34;;;31.62
72054;BMP280;59918;51.280;7.950;2022-07-29T10:05:39;97891.25;;;31.60
72054;BMP280;59918;51.280;7.950;2022-07-29T10:08:04;97886.47;;;31.54
72054;BMP280;59918;51.280;7.950;2022-07-29T10:10:32;97887.56;;;31.64
72054;BMP280;59918;51.280;7.950;2022-07-29T10:13:04;97891.72;;;31.89
72054;BMP280;59918;51.280;7.950;2022-07-29T10:15:32;97884.94;;;32.19
72054;BMP280;59918;51.280;7.950;2022-07-29T10:17:58;97885.75;;;32.46
72054;BMP280;59918;51.280;7.950;2022-07-29T10:20:26;97883.03;;;32.89
72054;BMP280;59918;51.280;7.950;2022-07-29T10:22:52;97894.69;;;32.69
72054;BMP280;59918;51.280;7.950;2022-07-29T10:25:19;97893.28;;;32.17
72054;BMP280;59918;51.280;7.950;2022-07-29T10:27:46;97897.03;;;31.77
72054;BMP280;59918;51.280;7.950;2022-07-29T10:30:12;97883.13;;;31.68
72054;BMP280;59918;51.280;7.950;2022-07-29T10:43:43;97889.03;;;31.15
72054;BMP280;59918;51.280;7.950;2022-07-29T10:46:10;97888.53;;;30.77
72054;BMP280;59918;51.280;7.950;2022-07-29T10:54:17;97888.50;;;30.97
72054;BMP280;59918;51.280;7.950;2022-07-29T10:56:43;97892.69;;;31.10
72054;BMP280;59918;51.280;7.950;2022-07-29T11:01:43;97893.69;;;30.94
72054;BMP280;59918;51.280;7.950;2022-07-29T11:04:08;97890.47;;;31.00
72054;BMP280;59918;51.280;7.950;2022-07-29T11:09:31;97887.38;;;30.98
72054;BMP280;59918;51.280;7.950;2022-07-29T11:12:00;97891.13;;;30.86
72054;BMP280;59918;51.280;7.950;2022-07-29T11:17:15;97889.31;;;31.72
72054;BMP280;59918;51.280;7.950;2022-07-29T11:19:40;97876.84;;;31.49
72054;BMP280;59918;51.280;7.950;2022-07-29T11:22:07;97885.59;;;31.26
72054;BMP280;59918;51.280;7.950;2022-07-29T11:24:33;97885.16;;;31.12
72054;BMP280;59918;51.280;7.950;2022-07-29T11:27:24;97885.81;;;30.86
72054;BMP280;59918;51.280;7.950;2022-07-29T11:29:56;97883.00;;;30.58
72054;BMP280;59918;51.280;7.950;2022-07-29T11:32:23;97883.84;;;30.39
72054;BMP280;59918;51.280;7.950;2022-07-29T11:34:50;97881.06;;;30.15
72054;BMP280;59918;51.280;7.950;2022-07-29T11:37:34;97889.59;;;30.20
72054;BMP280;59918;51.280;7.950;2022-07-29T11:40:09;97884.97;;;30.17
72054;BMP280;59918;51.280;7.950;2022-07-29T11:45:02;97882.66;;;29.96
72054;BMP280;59918;51.280;7.950;2022-07-29T11:47:28;97878.03;;;30.05
72054;BMP280;59918;51.280;7.950;2022-07-29T11:49:56;97868.59;;;30.15
72054;BMP280;59918;51.280;7.950;2022-07-29T11:52:21;97873.13;;;30.47
72054;BMP280;59918;51.280;7.950;2022-07-29T11:54:47;97872.09;;;30.84
72054;BMP280;59918;51.280;7.950;2022-07-29T11:57:15;97877.31;;;31.04
72054;BMP280;59918;51.280;7.950;2022-07-29T11:59:43;97882.31;;;31.05
72054;BMP280;59918;51.280;7.950;2022-07-29T12:02:09;97869.53;;;31.23
72054;BMP280;59918;51.280;7.950;2022-07-29T12:04:56;97878.09;;;31.40
72054;BMP280;59918;51.280;7.950;2022-07-29T12:07:32;97870.56;;;31.93
72054;BMP280;59918;51.280;7.950;2022-07-29T12:10:01;97875.69;;;32.55
72054;BMP280;59918;51.280;7.950;2022-07-29T12:12:27;97876.94;;;33.53
72054;BMP280;59918;51.280;7.950;2022-07-29T12:14:52;97873.16;;;34.48
72054;BMP280;59918;51.280;7.950;2022-07-29T12:17:25;97870.88;;;35.16
72054;BMP280;59918;51.280;7.950;2022-07-29T12:19:54;97860.44;;;35.56
72054;BMP280;59918;51.280;7.950;2022-07-29T12:25:18;97859.13;;;36.77
72054;BMP280;59918;51.280;7.950;2022-07-29T12:27:44;97860.13;;;35.90
72054;BMP280;59918;51.280;7.950;2022-07-29T12:30:15;97865.31;;;34.77
72054;BMP280;59918;51.280;7.950;2022-07-29T12:32:44;97878.97;;;33.93
72054;BMP280;59918;51.280;7.950;2022-07-29T12:35:15;97868.22;;;33.37
72054;BMP280;59918;51.280;7.950;2022-07-29T12:37:42;97875.66;;;32.98
72054;BMP280;59918;51.280;7.950;2022-07-29T12:40:09;97877.38;;;33.06
72054;BMP280;59918;51.280;7.950;2022-07-29T12:42:35;97879.09;;;32.98
72054;BMP280;59918;51.280;7.950;2022-07-29T12:45:00;97876.84;;;33.00
72054;BMP280;59918;51.280;7.950;2022-07-29T12:47:26;97877.31;;;33.36
72054;BMP280;59918;51.280;7.950;2022-07-29T12:50:09;97875.94;;;33.95
72054;BMP280;59918;51.280;7.950;2022-07-29T12:52:35;97880.06;;;33.74
72054;BMP280;59918;51.280;7.950;2022-07-29T12:55:01;97875.97;;;33.61
72054;BMP280;59918;51.280;7.950;2022-07-29T12:57:27;97861.53;;;34.37
72054;BMP280;59918;51.280;7.950;2022-07-29T13:00:09;97854.97;;;34.75
72054;BMP280;59918;51.280;7.950;2022-07-29T13:02:35;97851.78;;;35.69
72054;BMP280;59918;51.280;7.950;2022-07-29T13:05:03;97845.59;;;37.06
72054;BMP280;59918;51.280;7.950;2022-07-29T13:07:30;97838.22;;;38.75
72054;BMP280;59918;51.280;7.950;2022-07-29T13:10:16;97837.19;;;39.99
72054;BMP280;59918;51.280;7.950;2022-07-29T13:15:26;97832.06;;;40.22
72054;BMP280;59918;51.280;7.950;2022-07-29T13:17:51;97835.84;;;39.39
72054;BMP280;59918;51.280;7.950;2022-07-29T13:20:17;97830.75;;;39.83
72054;BMP280;59918;51.280;7.950;2022-07-29T13:22:42;97834.09;;;40.07
72054;BMP280;59918;51.280;7.950;2022-07-29T13:25:08;97829.63;;;41.38
72054;BMP280;59918;51.280;7.950;2022-07-29T13:27:35;97820.28;;;41.79
72054;BMP280;59918;51.280;7.950;2022-07-29T13:30:06;97817.00;;;41.94
72054;BMP280;59918;51.280;7.950;2022-07-29T13:32:32;97823.13;;;42.50
72054;BMP280;59918;51.280;7.950;2022-07-29T13:34:59;97808.00;;;43.44
72054;BMP280;59918;51.280;7.950;2022-07-29T13:37:25;97806.59;;;44.29
72054;BMP280;59918;51.280;7.950;2022-07-29T13:39:51;97812.81;;;44.10
72054;BMP280;59918;51.280;7.950;2022-07-29T13:42:16;97811.41;;;43.48
72054;BMP280;59918;51.280;7.950;2022-07-29T13:44:41;97810.53;;;42.89
72054;BMP280;59918;51.280;7.950;2022-07-29T13:47:07;97799.88;;;43.44
72054;BMP280;59918;51.280;7.950;2022-07-29T13:49:35;97805.84;;;43.93
72054;BMP280;59918;51.280;7.950;2022-07-29T13:52:01;97798.28;;;44.20
72054;BMP280;59918;51.280;7.950;2022-07-29T13:54:26;97800.88;;;43.72
72054;BMP280;59918;51.280;7.950;2022-07-29T13:56:52;97803.59;;;42.66
72054;BMP280;59918;51.280;7.950;2022-07-29T13:59:18;97812.28;;;42.28
72054;BMP280;59918;51.280;7.950;2022-07-29T14:01:44;97806.41;;;42.59
72054;BMP280;59918;51.280;7.950;2022-07-29T14:04:10;97806.09;;;43.41
72054;BMP280;59918;51.280;7.950;2022-07-29T14:06:35;97808.66;;;43.70
72054;BMP280;59918;51.280;7.950;2022-07-29T14:09:02;97806.97;;;44.11
72054;BMP280;59918;51.280;7.950;2022-07-29T14:11:27;97810.41;;;44.63
72054;BMP280;59918;51.280;7.950;2022-07-29T14:13:52;97808.03;;;44.96
72054;BMP280;59918;51.280;7.950;2022-07-29T14:16:18;97815.22;;;45.47
72054;BMP280;59918;51.280;7.950;2022-07-29T14:18:45;97807.03;;;45.62
72054;BMP280;59918;51.280;7.950;2022-07-29T14:21:11;97809.03;;;45.99
72054;BMP280;59918;51.280;7.950;2022-07-29T14:23:37;97803.81;;;45.92
72054;BMP280;59918;51.280;7.950;2022-07-29T14:26:05;97821.69;;;44.61
72054;BMP280;59918;51.280;7.950;2022-07-29T14:28:30;97817.63;;;43.45
72054;BMP280;59918;51.280;7.950;2022-07-29T14:30:55;97813.75;;;43.26
72054;BMP280;59918;51.280;7.950;2022-07-29T14:33:20;97809.31;;;43.13
72054;BMP280;59918;51.280;7.950;2022-07-29T14:35:46;97807.31;;;42.98
72054;BMP280;59918;51.280;7.950;2022-07-29T14:38:11;97814.69;;;43.59
72054;BMP280;59918;51.280;7.950;2022-07-29T14:40:36;97810.25;;;45.29
72054;BMP280;59918;51.280;7.950;2022-07-29T14:43:02;97807.06;;;45.87
72054;BMP280;59918;51.280;7.950;2022-07-29T14:45:27;97819.50;;;44.72
72054;BMP280;59918;51.280;7.950;2022-07-29T14:47:53;97819.44;;;43.32
72054;BMP280;59918;51.280;7.950;2022-07-29T14:50:18;97823.13;;;42.24
72054;BMP280;59918;51.280;7.950;2022-07-29T14:52:43;97824.38;;;41.57
72054;BMP280;59918;51.280;7.950;2022-07-29T14:57:36;97834.38;;;40.23
72054;BMP280;59918;51.280;7.950;2022-07-29T15:00:04;97835.91;;;39.15
72054;BMP280;59918;51.280;7.950;2022-07-29T15:02:30;97846.56;;;38.15
72054;BMP280;59918;51.280;7.950;2022-07-29T15:04:55;97848.66;;;37.68
72054;BMP280;59918;51.280;7.950;2022-07-29T15:07:20;97843.31;;;37.75
72054;BMP280;59918;51.280;7.950;2022-07-29T15:09:46;97843.16;;;38.28